Time;durP1;ratioP1;P1;durP2;ratioP2;P2;SDS_P1;SDS_P2;PMS_P1;PMS_P2;Temp;Humidity;BMP_temperature;BMP_pressure;BME280_temperature;BME280_humidity;BME280_pressure;Samples;Min_cycle;Max_cycle;Signal;HPM_P1;HPM_P2
2022/11/18 00:01:48;;;;;;;10.85;6.72;;;;;;;-0.34;100.00;97743.63;4159622;34;20036;-69
2022/11/18 00:04:17;;;;;;;12.48;5.65;;;;;;;-0.25;100.00;97737.06;4159931;34;20052;-69
2022/11/18 00:06:45;;;;;;;8.15;5.20;;;;;;;-0.26;100.00;97741.53;4171801;34;20064;-69
2022/11/18 00:09:14;;;;;;;9.48;5.25;;;;;;;-0.43;100.00;97746.50;4173482;34;20044;-70
2022/11/18 00:14:30;;;;;;;11.15;5.85;;;;;;;-0.60;100.00;97750.66;4173704;34;20075;-69
2022/11/18 00:17:02;;;;;;;9.50;4.47;;;;;;;-0.89;100.00;97721.06;4173461;34;20035;-69
2022/11/18 00:19:31;;;;;;;;;;;;;;;-0.66;100.00;97738.25;4191246;33;20030;-69
2022/11/18 00:22:00;;;;;;;12.27;5.30;;;;;;;-0.76;100.00;97736.84;4220595;33;20860;-69
2022/11/18 00:24:28;;;;;;;17.60;5.12;;;;;;;-0.80;100.00;97737.47;4219986;33;20092;-69
2022/11/18 00:26:55;;;;;;;8.00;4.97;;;;;;;-0.86;100.00;97736.50;4222590;33;20122;-69
2022/11/18 00:29:25;;;;;;;15.90;7.22;;;;;;;-1.04;100.00;97734.50;4222520;33;20614;-69
2022/11/18 00:31:53;;;;;;;10.60;7.00;;;;;;;-0.95;100.00;97727.16;4218248;34;20054;-69
2022/11/18 00:34:20;;;;;;;13.43;7.57;;;;;;;-0.87;100.00;97734.88;4221643;34;20046;-70
2022/11/18 00:36:48;;;;;;;12.32;7.57;;;;;;;-0.82;100.00;97727.13;4230775;33;20080;-71
2022/11/18 00:39:18;;;;;;;11.18;7.65;;;;;;;-0.78;100.00;97730.97;4236981;33;20107;-71
2022/11/18 00:44:31;;;;;;;12.60;6.78;;;;;;;-0.49;100.00;97742.06;4237029;33;20169;-70
2022/11/18 00:46:58;;;;;;;13.52;7.18;;;;;;;-0.44;100.00;97738.78;4237962;33;20150;-69
2022/11/18 00:49:26;;;;;;;10.55;7.12;;;;;;;-0.63;100.00;97727.28;4219874;34;20062;-69
2022/11/18 00:51:54;;;;;;;12.25;8.25;;;;;;;-0.53;100.00;97732.09;4224136;33;20296;-70
2022/11/18 00:54:21;;;;;;;12.70;7.45;;;;;;;-0.51;100.00;97735.34;4265335;33;20087;-70
2022/11/18 00:56:48;;;;;;;12.80;7.55;;;;;;;-0.40;100.00;97735.50;4259035;33;20042;-70
2022/11/18 00:59:18;;;;;;;11.65;7.30;;;;;;;-0.42;100.00;97726.94;4269497;33;20048;-70
2022/11/18 03:00:10;;;;;;;10.77;7.37;;;;;;;-1.06;100.00;97714.59;5066409;27;19963;31
2022/11/18 03:02:45;;;;;;;12.52;8.23;;;;;;;-1.31;100.00;97707.31;4255862;33;20689;-69
2022/11/18 03:05:42;;;;;;;13.10;6.97;;;;;;;-1.03;100.00;97698.34;4267406;33;20441;-69
2022/11/18 03:08:15;;;;;;;13.05;7.72;;;;;;;-0.93;100.00;97709.25;4267569;33;20063;-69
2022/11/18 03:11:19;;;;;;;11.77;7.45;;;;;;;-1.02;100.00;97705.22;4267649;33;20371;-70
2022/11/18 03:13:54;;;;;;;13.27;6.72;;;;;;;-0.90;100.00;97703.56;4244783;33;20416;-69
2022/11/18 03:16:30;;;;;;;10.90;5.53;;;;;;;-0.85;100.00;97706.37;4266671;33;20079;-68
2022/11/18 03:19:03;;;;;;;12.63;6.87;;;;;;;-0.94;100.00;97707.66;4267233;33;20651;-70
2022/11/18 03:21:50;;;;;;;11.93;7.05;;;;;;;-1.19;100.00;97697.75;4267059;33;20061;-71
2022/11/18 03:24:24;;;;;;;13.05;7.05;;;;;;;-1.24;100.00;97699.41;4248591;33;20069;-69
2022/11/18 03:26:56;;;;;;;11.73;7.35;;;;;;;-1.12;100.00;97703.84;4251405;33;20187;-70
2022/11/18 03:29:26;;;;;;;;;;;;;;;-1.40;100.00;97708.56;4255295;33;20056;-71
2022/11/18 03:31:59;;;;;;;13.13;7.15;;;;;;;-1.30;100.00;97706.31;4250947;33;19970;-69
2022/11/18 03:34:30;;;;;;;13.10;7.28;;;;;;;-1.27;100.00;97697.97;4235973;33;20207;-71
2022/11/18 03:37:00;;;;;;;15.32;7.85;;;;;;;-1.26;100.00;97699.59;4221437;34;20180;-71
2022/11/18 03:39:33;;;;;;;11.40;7.55;;;;;;;-1.10;100.00;97704.44;4222902;34;20420;-70
2022/11/18 03:42:15;;;;;;;13.80;6.35;;;;;;;-0.97;100.00;97716.81;4221616;34;20047;-69
2022/11/18 03:44:49;;;;;;;12.60;6.45;;;;;;;-1.06;100.00;97709.31;4222552;34;20059;-70
2022/11/18 03:47:41;;;;;;;8.27;6.12;;;;;;;-1.17;100.00;97703.62;4211002;34;20129;-71
2022/11/18 03:50:23;;;;;;;14.50;7.37;;;;;;;-1.32;100.00;97705.72;4207101;34;20149;-70
2022/11/18 03:52:58;;;;;;;12.63;7.43;;;;;;;-1.39;100.00;97710.16;4200083;34;20040;-69
2022/11/18 03:55:34;;;;;;;1.33;1.23;;;;;;;-1.47;100.00;97693.53;4206653;34;20046;-70
2022/11/18 03:58:09;;;;;;;12.95;6.72;;;;;;;-1.79;100.00;97683.81;4209417;34;20059;-70
2022/11/18 04:00:42;;;;;;;11.18;7.35;;;;;;;-1.78;100.00;97680.16;4209073;34;20065;-69
2022/11/18 04:03:10;;;;;;;5.95;3.95;;;;;;;-1.59;100.00;97683.81;4210491;34;20371;-69
2022/11/18 04:05:39;;;;;;;13.88;7.28;;;;;;;-1.70;100.00;97690.50;4210891;34;20052;-70
2022/11/18 04:08:12;;;;;;;9.15;6.47;;;;;;;-1.94;100.00;97653.16;4212413;34;20061;-70
2022/11/18 04:10:58;;;;;;;10.65;6.62;;;;;;;-1.94;100.00;97655.00;4212158;34;20078;-70
2022/11/18 04:13:29;;;;;;;4.18;2.67;;;;;;;-1.76;100.00;97651.72;4239124;33;20046;-70
2022/11/18 04:15:56;;;;;;;6.28;4.20;;;;;;;-1.74;100.00;97676.09;4236446;33;20043;-70
2022/11/18 04:18:29;;;;;;;12.52;7.45;;;;;;;-1.97;100.00;97677.31;4228884;33;20061;-69
2022/11/18 04:20:55;;;;;;;11.57;7.18;;;;;;;-1.67;100.00;97676.91;4234390;33;20050;-69
2022/11/18 04:23:22;;;;;;;10.25;5.65;;;;;;;-1.85;100.00;97667.78;4235335;33;20064;-70
2022/11/18 04:25:48;;;;;;;14.85;7.65;;;;;;;-2.01;100.00;97639.16;4224475;34;20083;-70
2022/11/18 04:28:21;;;;;;;9.68;6.45;;;;;;;-1.56;100.00;97678.94;4226198;33;20065;-70
2022/11/18 04:30:49;;;;;;;16.90;9.00;;;;;;;-1.83;100.00;97642.00;4223938;33;20144;-70
2022/11/18 04:33:15;;;;;;;14.75;8.65;;;;;;;-1.58;100.00;97670.41;4225457;34;20051;-71
2022/11/18 04:35:42;;;;;;;12.02;6.85;;;;;;;-1.49;100.00;97663.88;4221563;33;20444;-69
2022/11/18 04:38:08;;;;;;;9.98;5.90;;;;;;;-1.75;100.00;97621.69;4196823;34;20082;-69
2022/11/18 04:40:35;;;;;;;8.38;5.35;;;;;;;-1.75;100.00;97626.97;4168585;34;20077;-68
2022/11/18 04:43:01;;;;;;;17.85;7.95;;;;;;;-1.61;100.00;97664.69;4168967;34;20044;-70
2022/11/18 04:45:28;;;;;;;17.73;9.02;;;;;;;-1.93;100.00;97641.59;4170123;34;20070;-70
2022/11/18 04:47:54;;;;;;;16.77;8.73;;;;;;;-1.66;100.00;97658.22;4181896;34;20058;-69
2022/11/18 04:50:21;;;;;;;12.93;6.70;;;;;;;-1.59;100.00;97655.56;4183369;34;20047;-70
2022/11/18 04:52:47;;;;;;;14.30;8.15;;;;;;;-1.64;100.00;97660.66;4166737;34;20121;-68
2022/11/18 04:55:14;;;;;;;6.32;4.05;;;;;;;-1.88;100.00;97639.16;4155655;34;20068;-69
2022/11/18 04:57:40;;;;;;;11.45;6.25;;;;;;;-1.97;100.00;97635.09;4155434;34;20045;-69
2022/11/18 05:00:07;;;;;;;14.00;7.68;;;;;;;-2.29;100.00;97605.88;4156104;34;20073;-67
2022/11/18 05:02:34;;;;;;;16.23;9.10;;;;;;;-2.00;100.00;97635.50;4154821;34;20036;-68
2022/11/18 05:05:00;;;;;;;11.52;5.55;;;;;;;-1.84;100.00;97656.19;4140904;34;20056;-69
2022/11/18 05:07:27;;;;;;;19.65;9.23;;;;;;;-1.89;100.00;97637.53;4148708;34;20057;-70
2022/11/18 05:09:53;;;;;;;16.35;8.55;;;;;;;-1.99;100.00;97612.56;4174429;34;20089;-70
2022/11/18 05:15:05;;;;;;;8.43;4.65;;;;;;;-1.73;100.00;97657.41;4188624;34;20065;-70
2022/11/18 05:17:34;;;;;;;24.20;11.27;;;;;;;-1.68;100.00;97656.81;4190293;34;20456;-69
2022/11/18 05:20:00;;;;;;;17.10;6.35;;;;;;;-1.67;100.00;97661.06;4210742;34;20043;-70
2022/11/18 05:22:26;;;;;;;9.23;5.05;;;;;;;-1.84;100.00;97648.28;4211323;34;20080;-69
2022/11/18 05:24:53;;;;;;;12.82;5.85;;;;;;;-1.93;100.00;97624.94;4208783;33;20065;-69
2022/11/18 05:27:19;;;;;;;24.37;10.50;;;;;;;-1.88;100.00;97665.53;4224026;34;20055;-70
2022/11/18 05:29:46;;;;;;;18.27;9.13;;;;;;;-1.94;100.00;97634.69;4262241;33;20045;-70
2022/11/18 05:32:12;;;;;;;16.77;9.18;;;;;;;-1.81;100.00;97643.63;4269510;33;20046;-69
2022/11/18 05:34:40;;;;;;;22.37;9.85;;;;;;;-1.79;100.00;97646.87;4268860;33;20441;-70
2022/11/18 05:37:07;;;;;;;15.05;7.87;;;;;;;-1.51;100.00;97678.31;4237752;33;20469;-69
2022/11/18 05:39:33;;;;;;;11.15;7.30;;;;;;;-1.67;100.00;97671.63;4238683;33;20046;-69
2022/11/18 05:44:51;;;;;;;13.02;5.55;;;;;;;-1.80;100.00;97645.22;4238269;33;20046;-70
2022/11/18 05:47:18;;;;;;;14.57;6.07;;;;;;;-1.73;100.00;97661.87;4239002;33;20050;-70
2022/11/18 05:49:44;;;;;;;14.43;7.93;;;;;;;-1.88;100.00;97633.88;4237813;33;20054;-69
2022/11/18 05:52:11;;;;;;;17.02;9.30;;;;;;;-1.76;100.00;97681.56;4238600;33;20072;-69
2022/11/18 05:54:41;;;;;;;20.67;7.12;;;;;;;-1.57;100.00;97679.94;4221181;34;20254;-69
2022/11/18 05:57:07;;;;;;;13.52;6.68;;;;;;;-1.46;100.00;97689.06;4224801;34;20155;-70
2022/11/18 05:59:34;;;;;;;20.25;10.15;;;;;;;-1.51;100.00;97697.59;4215548;34;20046;-70
2022/11/18 06:02:09;;;;;;;36.47;11.30;;;;;;;-1.56;100.00;97700.03;4211288;34;20430;-70
2022/11/18 06:04:57;;;;;;;18.15;10.43;;;;;;;-1.99;100.00;97663.50;4208484;34;20043;-70
2022/11/18 06:07:40;;;;;;;10.80;6.00;;;;;;;-1.64;100.00;97700.25;4210773;34;20044;-70
2022/11/18 06:10:12;;;;;;;3.42;3.05;;;;;;;-1.84;100.00;97695.78;4209128;34;20347;-70
2022/11/18 06:12:42;;;;;;;14.70;7.80;;;;;;;-2.19;100.00;97642.41;4224368;34;20039;-70
2022/11/18 06:15:15;;;;;;;16.95;8.95;;;;;;;-1.67;100.00;97708.59;4215996;34;20230;-70
2022/11/18 06:17:44;;;;;;;;;;;;;;;-1.47;100.00;97712.03;4223913;34;20031;-69
2022/11/18 06:20:11;;;;;;;17.60;7.90;;;;;;;-1.30;100.00;97719.50;4222716;34;20032;-70
2022/11/18 06:22:38;;;;;;;10.25;5.72;;;;;;;-1.38;100.00;97717.09;4223817;34;20051;-70
2022/11/18 06:25:05;;;;;;;19.77;9.25;;;;;;;-1.68;100.00;97718.31;4224106;33;20440;-70
2022/11/18 06:27:32;;;;;;;23.73;8.68;;;;;;;-1.54;100.00;97724.41;4231266;33;20038;-71
2022/11/18 06:29:59;;;;;;;17.62;8.50;;;;;;;-1.51;100.00;97731.13;4236367;33;20067;-69
2022/11/18 06:32:25;;;;;;;15.05;8.32;;;;;;;-1.38;100.00;97743.50;4236513;33;20075;-70
2022/11/18 06:34:52;;;;;;;14.35;8.13;;;;;;;-1.60;100.00;97741.06;4237125;33;20065;-70
2022/11/18 06:37:21;;;;;;;8.00;4.57;;;;;;;-1.78;100.00;97696.00;4238655;33;20070;-70
2022/11/18 06:39:48;;;;;;;13.82;6.85;;;;;;;-1.61;100.00;97739.44;4222941;33;20074;-68
2022/11/18 06:43:37;;;;;;;8.57;5.97;;;;;;;-1.47;100.00;97753.44;4222835;34;20084;-70
2022/11/18 06:45:04;;;;;;;7.50;5.28;;;;;;;-1.55;100.00;97743.88;4222066;34;20063;-70
2022/11/18 06:47:31;;;;;;;17.58;6.80;;;;;;;-1.49;100.00;97751.00;4223776;33;20054;-69
2022/11/18 06:49:58;;;;;;;11.07;4.55;;;;;;;-1.31;100.00;97749.56;4235294;33;20150;-70
2022/11/18 06:52:24;;;;;;;12.23;6.28;;;;;;;-1.38;100.00;97746.94;4239861;33;20076;-69
2022/11/18 06:54:51;;;;;;;8.70;4.72;;;;;;;-1.57;100.00;97714.25;4247399;33;20074;-68
2022/11/18 06:57:17;;;;;;;9.02;4.60;;;;;;;-1.54;100.00;97734.97;4248445;33;20428;-68
2022/11/18 06:59:44;;;;;;;8.70;5.15;;;;;;;-1.54;100.00;97728.88;4248639;33;20136;-69
2022/11/18 07:02:10;;;;;;;14.32;5.97;;;;;;;-1.36;100.00;97730.88;4249619;33;20376;-73
2022/11/18 07:04:39;;;;;;;12.07;6.05;;;;;;;-1.30;100.00;97728.25;4249614;33;20405;-71
2022/11/18 07:07:07;;;;;;;14.02;4.87;;;;;;;-1.48;100.00;97728.88;4267360;33;20064;-72
2022/11/18 07:09:34;;;;;;;13.30;6.87;;;;;;;-1.36;100.00;97749.38;4265740;33;20050;-75
2022/11/18 07:12:00;;;;;;;11.85;6.60;;;;;;;-1.42;100.00;97745.75;4268407;33;20053;-73
2022/11/18 07:14:27;;;;;;;11.18;6.62;;;;;;;-1.56;100.00;97742.28;4266572;33;20353;-73
2022/11/18 07:16:54;;;;;;;9.23;5.57;;;;;;;-1.71;100.00;97720.53;4268426;33;20067;-72
2022/11/18 07:19:21;;;;;;;13.77;6.85;;;;;;;-1.60;100.00;97750.81;4266859;33;20045;-72
2022/11/18 07:21:47;;;;;;;9.43;5.65;;;;;;;-1.41;100.00;97759.75;4265952;33;20387;-73
2022/11/18 07:24:14;;;;;;;10.15;6.47;;;;;;;-1.70;100.00;97735.38;4267602;33;20079;-72
2022/11/18 07:26:42;;;;;;;6.68;3.75;;;;;;;-1.50;100.00;97749.41;4267928;33;20391;-73
2022/11/18 07:29:08;;;;;;;8.77;5.75;;;;;;;-1.95;100.00;97722.75;4266776;33;20046;-72
2022/11/18 07:31:39;;;;;;;12.15;6.03;;;;;;;-1.86;100.00;97720.75;4268060;33;20063;-72
2022/11/18 07:34:06;;;;;;;12.88;6.62;;;;;;;-1.86;100.00;97718.91;4265143;33;20080;-72
2022/11/18 07:36:33;;;;;;;12.35;6.37;;;;;;;-1.43;100.00;97767.06;4266430;33;20041;-72
2022/11/18 07:39:00;;;;;;;13.20;6.78;;;;;;;-1.48;100.00;97755.28;4267845;33;20124;-72
2022/11/18 07:41:29;;;;;;;9.00;5.87;;;;;;;-1.19;100.00;97769.06;4266764;33;20459;-70
2022/11/18 07:43:57;;;;;;;10.50;5.45;;;;;;;-1.36;100.00;97773.94;4267006;33;20050;-74
2022/11/18 07:46:26;;;;;;;4.20;2.62;;;;;;;-1.35;100.00;97775.59;4267836;33;20080;-72
2022/11/18 07:48:54;;;;;;;6.97;4.45;;;;;;;-1.61;100.00;97773.75;4267923;33;20447;-73
2022/11/18 07:51:26;;;;;;;5.78;3.42;;;;;;;-1.50;100.00;97773.16;4265981;33;20045;-72
2022/11/18 07:53:53;;;;;;;12.57;5.85;;;;;;;-1.56;100.00;97770.53;4265160;33;20118;-73
2022/11/18 07:56:20;;;;;;;10.05;5.37;;;;;;;-1.53;100.00;97781.47;4267074;33;20037;-71
2022/11/18 07:58:50;;;;;;;7.15;3.50;;;;;;;-1.44;100.00;97776.78;4267690;33;20050;-71
2022/11/18 08:01:20;;;;;;;3.05;1.70;;;;;;;-1.51;100.00;97765.44;4267147;33;20068;-71
2022/11/18 08:03:47;;;;;;;5.10;2.85;;;;;;;-1.88;100.00;97744.69;4265243;33;20045;-71
2022/11/18 08:06:15;;;;;;;5.00;2.75;;;;;;;-1.86;100.00;97779.59;4267603;33;20053;-71
2022/11/18 08:08:42;;;;;;;4.85;3.50;;;;;;;-1.71;100.00;97773.31;4267883;33;20046;-71
2022/11/18 08:11:11;;;;;;;5.05;3.00;;;;;;;-1.75;100.00;97767.66;4267697;33;20046;-71
2022/11/18 08:13:38;;;;;;;4.10;1.95;;;;;;;-1.46;100.00;97766.44;4263113;33;20085;-70
2022/11/18 08:16:13;;;;;;;6.18;3.55;;;;;;;-1.80;100.00;97740.22;4266366;33;20049;-71
2022/11/18 08:18:40;;;;;;;4.72;2.67;;;;;;;-1.50;100.00;97762.59;4248195;33;20377;-72
2022/11/18 08:21:07;;;;;;;4.43;2.60;;;;;;;-1.60;100.00;97767.44;4248367;33;20042;-71
2022/11/18 08:23:33;;;;;;;1.60;1.50;;;;;;;-1.61;100.00;97776.41;4240602;33;20554;-70
2022/11/18 08:26:02;;;;;;;3.70;2.60;;;;;;;-1.78;100.00;97764.59;4240376;33;20189;-71
2022/11/18 08:28:29;;;;;;;5.82;3.67;;;;;;;-1.92;100.00;97764.56;4243186;33;20043;-71
2022/11/18 08:30:55;;;;;;;5.93;2.62;;;;;;;-1.62;100.00;97768.69;4248870;33;20055;-72
2022/11/18 08:33:22;;;;;;;5.53;3.10;;;;;;;-1.67;100.00;97766.66;4243219;33;20063;-70
2022/11/18 08:35:49;;;;;;;5.32;2.08;;;;;;;-1.61;100.00;97770.28;4242854;33;20031;-72
2022/11/18 08:38:15;;;;;;;3.75;2.90;;;;;;;-1.73;100.00;97762.97;4243217;33;20915;-71
2022/11/18 08:40:45;;;;;;;2.28;1.80;;;;;;;-1.64;100.00;97760.97;4244327;33;20086;-71
2022/11/18 08:43:12;;;;;;;1.42;1.35;;;;;;;-1.57;100.00;97759.13;4242775;33;20053;-72
2022/11/18 08:45:39;;;;;;;9.43;4.62;;;;;;;-1.68;100.00;97749.19;4237054;33;20053;-70
2022/11/18 08:48:06;;;;;;;10.85;5.82;;;;;;;-1.86;100.00;97721.56;4243952;33;20401;-70
2022/11/18 08:50:32;;;;;;;3.85;2.90;;;;;;;-2.09;100.00;97721.13;4264386;33;20038;-71
2022/11/18 08:52:58;;;;;;;3.90;2.80;;;;;;;-1.50;100.00;97765.22;4267827;33;20067;-72
2022/11/18 08:55:25;;;;;;;3.08;2.08;;;;;;;-1.25;100.00;97764.59;4269149;33;20053;-70
2022/11/18 08:57:51;;;;;;;1.58;1.48;;;;;;;-1.30;100.00;97767.84;4267568;33;20064;-71
2022/11/18 09:00:18;;;;;;;3.72;3.08;;;;;;;-1.64;100.00;97745.13;4269240;33;20793;-71
2022/11/18 09:02:45;;;;;;;4.53;2.80;;;;;;;-1.36;100.00;97767.87;4269587;33;20083;-72
2022/11/18 09:05:11;;;;;;;5.45;3.03;;;;;;;-1.46;100.00;97747.94;4269058;33;20095;-72
2022/11/18 09:07:38;;;;;;;4.68;3.05;;;;;;;-1.20;100.00;97788.56;4268878;33;20219;-69
2022/11/18 09:10:05;;;;;;;5.40;2.97;;;;;;;-1.11;100.00;97792.63;4268517;33;20084;-71
2022/11/18 09:12:31;;;;;;;4.90;2.05;;;;;;;-0.82;100.00;97789.75;4269632;33;20057;-70
2022/11/18 09:14:57;;;;;;;2.28;1.98;;;;;;;-1.00;100.00;97782.47;4267152;33;20071;-70
2022/11/18 09:17:24;;;;;;;3.45;2.17;;;;;;;-1.12;100.00;97738.19;4244996;33;20068;-72
2022/11/18 09:20:10;;;;;;;2.70;1.65;;;;;;;-0.95;100.00;97743.03;4245005;33;20061;-71
2022/11/18 09:22:38;;;;;;;3.95;2.05;;;;;;;-1.13;100.00;97720.69;4244931;33;20058;-71
2022/11/18 09:25:05;;;;;;;2.67;2.12;;;;;;;-0.81;100.00;97749.91;4244743;33;20050;-72
2022/11/18 09:27:31;;;;;;;4.68;2.62;;;;;;;-0.64;100.00;97773.22;4244876;33;20059;-70
2022/11/18 09:29:57;;;;;;;4.10;2.42;;;;;;;-0.35;100.00;97784.31;4243431;33;20109;-72
2022/11/18 09:32:24;;;;;;;3.72;2.58;;;;;;;-0.64;100.00;97738.84;4244868;33;20100;-72
2022/11/18 09:34:50;;;;;;;5.30;3.33;;;;;;;-0.28;100.00;97775.31;4244850;33;20080;-71
2022/11/18 09:37:17;;;;;;;3.17;2.90;;;;;;;-0.37;100.00;97772.12;4244745;33;20047;-71
2022/11/18 09:39:44;;;;;;;2.62;2.03;;;;;;;-0.81;100.00;97731.38;4244299;33;20429;-70
2022/11/18 09:42:22;;;;;;;4.85;2.22;;;;;;;-0.81;100.00;97763.09;4243953;33;20071;-72
2022/11/18 09:45:11;;;;;;;3.97;2.10;;;;;;;-0.87;100.00;97729.56;4245452;33;20046;-71
2022/11/18 09:47:37;;;;;;;1.87;1.77;;;;;;;-1.06;100.00;97727.81;4243452;33;20078;-71
2022/11/18 09:50:14;;;;;;;9.07;2.75;;;;;;;-0.80;100.00;97762.09;4267896;33;20080;-71
2022/11/18 09:53:04;;;;;;;5.12;2.50;;;;;;;-0.70;100.00;97760.84;4266699;33;20059;-71
2022/11/18 09:55:34;;;;;;;3.22;2.12;;;;;;;-0.74;100.00;97724.25;4267207;33;20041;-71
2022/11/18 09:58:00;;;;;;;5.97;2.45;;;;;;;-0.97;100.00;97724.72;4267201;33;20392;-71
2022/11/18 10:00:29;;;;;;;3.28;2.33;;;;;;;-0.76;100.00;97763.28;4266962;33;20067;-71
2022/11/18 10:03:22;;;;;;;3.95;2.70;;;;;;;-0.84;100.00;97755.59;4266445;33;20412;-72
2022/11/18 10:05:56;;;;;;;;;;;;;;;-0.75;100.00;97764.94;4266955;33;20037;-73
2022/11/18 10:08:37;;;;;;;1.75;1.55;;;;;;;-0.75;100.00;97770.22;4267621;33;19951;-72
2022/11/18 10:11:21;;;;;;;1.73;1.63;;;;;;;-0.73;100.00;97767.37;4252234;33;20077;-71
2022/11/18 10:14:09;;;;;;;5.28;3.35;;;;;;;-0.91;100.00;97717.78;4250822;33;20073;-71
2022/11/18 10:16:54;;;;;;;2.05;1.50;;;;;;;-0.42;100.00;97769.28;4252038;33;20076;-71
2022/11/18 10:19:44;;;;;;;3.15;2.05;;;;;;;-1.05;100.00;97774.31;4251060;33;20497;-72
2022/11/18 10:22:18;;;;;;;2.03;1.92;;;;;;;-0.93;100.00;97775.31;4250935;33;20997;-72
2022/11/18 10:24:50;;;;;;;4.10;2.78;;;;;;;-1.01;100.00;97738.56;4247530;33;20372;-72
2022/11/18 10:27:18;;;;;;;1.40;1.40;;;;;;;-0.69;100.00;97775.69;4252019;33;20072;-72
2022/11/18 10:29:52;;;;;;;7.35;2.05;;;;;;;-0.90;100.00;97777.56;4250548;33;20067;-72
2022/11/18 10:32:18;;;;;;;2.83;2.62;;;;;;;-1.03;100.00;97774.94;4252564;33;20050;-72
2022/11/18 10:34:48;;;;;;;2.60;2.03;;;;;;;-1.16;100.00;97760.75;4251833;33;20050;-71
2022/11/18 10:37:29;;;;;;;1.92;1.58;;;;;;;-1.02;100.00;97779.19;4250844;33;20042;-72
2022/11/18 10:40:01;;;;;;;1.67;1.55;;;;;;;-0.73;100.00;97775.28;4252247;33;20513;-72
2022/11/18 10:42:41;;;;;;;1.50;1.40;;;;;;;-0.59;100.00;97774.22;4262383;33;20075;-72
2022/11/18 10:45:20;;;;;;;3.10;1.58;;;;;;;-0.74;100.00;97776.31;4266273;33;20077;-72
2022/11/18 10:48:16;;;;;;;4.90;3.00;;;;;;;-0.85;100.00;97753.97;4266823;33;20038;-72
2022/11/18 10:50:45;;;;;;;1.52;1.42;;;;;;;-0.64;100.00;97773.22;4266318;33;20042;-69
2022/11/18 10:53:31;;;;;;;3.95;2.33;;;;;;;-0.92;100.00;97774.31;4268161;33;20100;-72
2022/11/18 10:56:06;;;;;;;3.62;1.70;;;;;;;-1.13;100.00;97747.13;4268260;33;20063;-72
2022/11/18 10:58:41;;;;;;;3.50;1.95;;;;;;;-1.16;100.00;97779.22;4266208;33;20042;-70
2022/11/18 11:01:20;;;;;;;5.15;2.87;;;;;;;-1.31;100.00;97741.66;4268094;33;20157;-72
2022/11/18 11:04:16;;;;;;;10.77;2.20;;;;;;;-0.95;100.00;97786.09;4267771;33;20064;-71
2022/11/18 11:06:42;;;;;;;2.83;1.40;;;;;;;-0.93;100.00;97789.34;4262644;33;20034;-71
2022/11/18 11:09:21;;;;;;;2.58;2.03;;;;;;;-0.93;100.00;97793.81;4268020;33;20046;-70
2022/11/18 11:12:11;;;;;;;7.80;3.60;;;;;;;-0.79;100.00;97798.06;4265542;33;20068;-70
2022/11/18 11:14:52;;;;;;;3.05;2.35;;;;;;;-0.61;100.00;97772.81;4267819;33;20107;-72
2022/11/18 11:17:26;;;;;;;2.12;1.98;;;;;;;-0.35;100.00;97797.53;4223733;34;20366;-70
2022/11/18 11:20:18;;;;;;;2.60;2.40;;;;;;;-0.28;100.00;97806.25;4223399;34;20042;-72
2022/11/18 11:22:45;;;;;;;;;;;;;;;-0.23;100.00;97804.59;4222211;34;20072;-73
2022/11/18 11:25:26;;;;;;;4.47;2.72;;;;;;;-0.03;100.00;97812.47;4219980;34;19952;-71
2022/11/18 11:28:01;;;;;;;2.62;2.42;;;;;;;0.06;100.00;97806.91;4221064;34;20426;-71
2022/11/18 11:30:30;;;;;;;3.75;1.58;;;;;;;0.06;100.00;97786.53;4222565;34;20100;-72
2022/11/18 11:32:56;;;;;;;5.18;2.22;;;;;;;0.01;100.00;97788.22;4220091;34;20384;-70
2022/11/18 11:35:46;;;;;;;5.12;2.80;;;;;;;0.01;100.00;97810.19;4221925;34;20097;-70
2022/11/18 11:38:30;;;;;;;3.67;1.73;;;;;;;0.27;100.00;97808.41;4219754;34;20038;-71
2022/11/18 11:41:20;;;;;;;2.78;2.05;;;;;;;0.15;100.00;97805.66;4221321;34;20166;-72
2022/11/18 11:44:21;;;;;;;3.28;2.20;;;;;;;0.02;100.00;97795.12;4222359;34;20347;-70
2022/11/18 11:47:46;;;;;;;2.60;2.40;;;;;;;0.36;100.00;97823.03;4223273;34;20102;-71
2022/11/18 11:50:27;;;;;;;2.37;1.73;;;;;;;0.23;100.00;97823.94;4266532;33;20045;-72
2022/11/18 11:52:59;;;;;;;1.35;1.27;;;;;;;-0.35;100.00;97821.34;4266848;33;20064;-73
2022/11/18 11:58:15;;;;;;;4.68;3.03;;;;;;;-0.07;100.00;97813.87;4248607;33;20052;-71
2022/11/18 12:01:01;;;;;;;7.87;2.53;;;;;;;-0.31;100.00;97790.81;4430214;28;20161;-71
2022/11/18 12:03:56;;;;;;;4.30;2.35;;;;;;;-0.10;100.00;97819.59;4245874;33;20072;-71
2022/11/18 12:06:22;;;;;;;3.33;2.83;;;;;;;-0.11;100.00;97812.72;4250180;33;20037;-70
2022/11/18 12:09:16;;;;;;;2.70;2.50;;;;;;;-0.32;100.00;97775.94;4250351;33;20058;-69
2022/11/18 12:11:57;;;;;;;4.62;3.17;;;;;;;-0.02;100.00;97810.62;4240508;33;20384;-70
2022/11/18 12:14:34;;;;;;;1.90;1.67;;;;;;;-0.31;100.00;97785.53;4248143;33;20050;-69
2022/11/18 12:17:17;;;;;;;5.72;2.83;;;;;;;-0.46;100.00;97786.59;4245728;33;20053;-71
2022/11/18 12:19:44;;;;;;;6.68;3.20;;;;;;;-0.26;100.00;97805.00;4248633;33;20050;-72
2022/11/18 12:22:10;;;;;;;4.35;3.28;;;;;;;-0.39;100.00;97816.47;4249460;33;20056;-71
2022/11/18 12:24:41;;;;;;;7.55;4.75;;;;;;;-0.51;100.00;97804.94;4252929;33;20066;-72
2022/11/18 12:27:30;;;;;;;6.72;3.42;;;;;;;-0.33;100.00;97819.31;4264538;33;20037;-72
2022/11/18 12:30:02;;;;;;;2.72;1.83;;;;;;;-0.07;100.00;97818.38;4266888;33;20038;-71
2022/11/18 12:32:29;;;;;;;;;;;;;;;-0.31;100.00;97785.53;4268095;33;20399;-70
2022/11/18 12:35:02;;;;;;;1.12;1.10;;;;;;;-0.09;100.00;97826.53;4248508;33;20015;-71
2022/11/18 12:37:29;;;;;;;5.20;2.75;;;;;;;-0.30;100.00;97818.88;4239230;33;20375;-71
2022/11/18 12:39:55;;;;;;;5.72;2.67;;;;;;;-0.38;100.00;97812.81;4238729;33;20062;-71
2022/11/18 12:43:52;;;;;;;7.85;3.72;;;;;;;-0.27;100.00;97823.75;4239065;33;20076;-72
2022/11/18 12:45:51;;;;;;;3.12;2.50;;;;;;;-0.10;100.00;97818.78;4202796;34;20101;-71
2022/11/18 12:48:34;;;;;;;6.45;3.22;;;;;;;-0.73;100.00;97778.75;4219569;34;20059;-72
2022/11/18 12:51:20;;;;;;;17.25;2.50;;;;;;;-0.55;100.00;97790.47;4224464;34;20189;-70
2022/11/18 12:53:48;;;;;;;6.07;2.87;;;;;;;-0.51;100.00;97814.66;4213185;34;20062;-71
2022/11/18 12:56:18;;;;;;;8.45;4.47;;;;;;;-0.27;100.00;97810.50;4208932;34;20118;-70
2022/11/18 12:58:45;;;;;;;4.68;3.72;;;;;;;-0.18;100.00;97785.44;4208957;34;20059;-69
2022/11/18 13:01:14;;;;;;;5.18;3.08;;;;;;;0.14;100.00;97820.72;4210347;34;20069;-70
2022/11/18 13:03:41;;;;;;;7.68;4.00;;;;;;;0.23;100.00;97802.75;4217654;34;20057;-72
2022/11/18 13:06:28;;;;;;;8.07;4.20;;;;;;;-0.24;100.00;97762.47;4203861;34;20061;-72
2022/11/18 13:08:59;;;;;;;6.15;3.85;;;;;;;0.03;100.00;97815.28;4214206;34;20092;-71
2022/11/18 13:11:43;;;;;;;10.80;3.60;;;;;;;-0.08;100.00;97812.28;4220798;34;20063;-69
2022/11/18 13:20:18;;;;;;;6.53;2.85;;;;;;;-0.13;100.00;97812.09;4209313;34;20555;-71
2022/11/18 13:25:41;;;;;;;5.93;3.95;;;;;;;-0.42;100.00;97777.19;4238848;33;20472;-70
2022/11/18 13:28:26;;;;;;;4.72;3.25;;;;;;;-0.26;100.00;97809.50;4238600;33;20042;-69
2022/11/18 13:31:16;;;;;;;6.25;3.28;;;;;;;-0.30;100.00;97818.88;4237699;33;20064;-71
2022/11/18 13:33:42;;;;;;;13.68;3.80;;;;;;;-0.19;100.00;97820.87;4234988;33;20069;-71
2022/11/18 13:36:27;;;;;;;11.63;3.67;;;;;;;-0.37;100.00;97801.22;4207256;34;20328;-69
2022/11/18 13:39:01;;;;;;;9.98;4.97;;;;;;;-0.62;100.00;97777.28;4208001;34;20035;-69
2022/11/18 13:41:34;;;;;;;6.80;3.75;;;;;;;-0.35;100.00;97826.63;4206737;34;20062;-71
2022/11/18 13:44:24;;;;;;;9.00;4.25;;;;;;;-0.38;100.00;97828.69;4187683;34;20078;-70
2022/11/18 13:47:14;;;;;;;7.43;4.22;;;;;;;-0.26;100.00;97835.97;4177879;34;20690;-68
2022/11/18 13:49:56;;;;;;;9.90;5.07;;;;;;;-0.26;100.00;97820.09;4130969;34;20051;-69
2022/11/18 13:52:30;;;;;;;5.07;3.37;;;;;;;0.01;100.00;97835.84;4103881;34;20065;-69
2022/11/18 13:55:00;;;;;;;5.00;3.28;;;;;;;-0.22;100.00;97834.53;4102927;34;20050;-69
2022/11/18 13:57:28;;;;;;;7.68;3.60;;;;;;;-0.30;100.00;97803.81;4109992;34;20067;-69
2022/11/18 14:00:00;;;;;;;5.18;2.90;;;;;;;-0.19;100.00;97832.28;4113573;34;20531;-68
2022/11/18 14:02:27;;;;;;;8.05;4.47;;;;;;;-0.24;100.00;97844.50;4105338;34;20087;-69
2022/11/18 14:04:57;;;;;;;10.30;5.10;;;;;;;-0.31;100.00;97838.41;4108180;34;20318;-70
2022/11/18 14:07:34;;;;;;;15.90;5.10;;;;;;;-0.35;100.00;97847.78;4130408;34;20066;-69
2022/11/18 14:10:02;;;;;;;7.07;3.75;;;;;;;-0.37;100.00;97851.47;4146565;34;20036;-69